createdAt,value
2018-09-27T00:00:51.893Z,75.50
2018-09-27T00:03:18.894Z,77.30
2018-09-27T00:05:45.923Z,77.50
2018-09-27T00:08:12.893Z,77.40
2018-09-27T00:10:39.889Z,78.10
2018-09-27T00:13:06.858Z,77.50
2018-09-27T00:15:33.846Z,77.90
2018-09-27T00:18:00.845Z,78.80
2018-09-27T00:20:27.800Z,77.90
2018-09-27T00:22:54.767Z,78.20
2018-09-27T00:25:21.754Z,78.40
2018-09-27T00:27:48.728Z,78.50
2018-09-27T00:30:15.675Z,78.70
2018-09-27T00:32:42.650Z,78.10
2018-09-27T00:35:09.630Z,77.90
2018-09-27T00:37:36.615Z,78.60
2018-09-27T00:40:03.825Z,79.20
2018-09-27T00:42:30.812Z,78.60
2018-09-27T00:44:57.773Z,78.30
2018-09-27T00:47:24.764Z,78.60
2018-09-27T00:49:51.721Z,79.10
2018-09-27T00:52:18.688Z,79.60
2018-09-27T00:54:45.686Z,79.90
2018-09-27T00:57:13.160Z,80.30
2018-09-27T00:59:40.125Z,80.70
2018-09-27T01:02:07.102Z,81.10
2018-09-27T01:04:34.068Z,81.20
2018-09-27T01:07:01.046Z,80.90
2018-09-27T01:09:28.022Z,80.50
2018-09-27T01:11:54.986Z,81.20
2018-09-27T01:14:21.955Z,81.40
2018-09-27T01:16:49.055Z,81.10
2018-09-27T01:19:16.153Z,81.30
2018-09-27T01:21:43.148Z,82.10
2018-09-27T01:24:10.145Z,82.50
2018-09-27T01:26:37.108Z,82.90
2018-09-27T01:29:04.131Z,84.10
2018-09-27T01:31:31.143Z,83.20
2018-09-27T01:33:58.128Z,83.60
2018-09-27T01:36:25.120Z,84.00
2018-09-27T01:38:52.141Z,83.80
2018-09-27T01:41:19.149Z,84.20
2018-09-27T01:43:46.107Z,83.90
2018-09-27T01:46:13.119Z,82.90
2018-09-27T01:48:40.229Z,83.10
2018-09-27T01:51:07.198Z,83.40
2018-09-27T01:53:34.207Z,83.90
2018-09-27T01:56:01.249Z,83.90
2018-09-27T01:58:28.561Z,84.00
2018-09-27T02:00:55.595Z,83.60
2018-09-27T02:03:22.550Z,82.90
2018-09-27T02:05:49.561Z,82.20
2018-09-27T02:08:16.560Z,82.10
2018-09-27T02:10:43.547Z,81.70
2018-09-27T02:13:10.560Z,82.40
2018-09-27T02:15:37.667Z,82.10
2018-09-27T02:18:04.693Z,82.60
2018-09-27T02:20:31.632Z,82.60
2018-09-27T02:22:58.606Z,83.20
2018-09-27T02:25:25.585Z,84.20
2018-09-27T02:27:52.612Z,84.10
2018-09-27T02:30:19.623Z,85.20
2018-09-27T02:32:46.606Z,83.70
2018-09-27T02:35:14.527Z,83.40
2018-09-27T02:37:41.512Z,83.10
2018-09-27T02:40:29.858Z,85.10
2018-09-27T02:42:56.846Z,85.60
2018-09-27T02:45:23.801Z,86.00
2018-09-27T02:47:50.770Z,85.70
2018-09-27T02:50:17.738Z,85.50
2018-09-27T02:52:44.902Z,85.20
2018-09-27T02:55:11.926Z,85.90
2018-09-27T02:57:39.262Z,86.50
2018-09-27T03:00:06.662Z,86.50
2018-09-27T03:02:33.691Z,86.50
2018-09-27T03:05:00.614Z,86.60
2018-09-27T03:07:27.578Z,86.20
2018-09-27T03:09:54.537Z,85.70
2018-09-27T03:12:21.505Z,86.30
2018-09-27T03:14:48.469Z,85.90
2018-09-27T03:17:15.416Z,85.30
2018-09-27T03:19:42.372Z,85.00
2018-09-27T03:22:09.321Z,85.40
2018-09-27T03:24:36.270Z,85.60
2018-09-27T03:27:03.260Z,84.80
2018-09-27T03:29:30.226Z,85.40
2018-09-27T03:31:57.215Z,85.90
2018-09-27T03:34:24.214Z,86.10
2018-09-27T03:36:51.154Z,86.40
2018-09-27T03:39:18.132Z,85.70
2018-09-27T03:41:45.081Z,85.80
2018-09-27T03:44:12.058Z,85.10
2018-09-27T03:46:39.027Z,84.40
2018-09-27T03:49:05.981Z,84.70
2018-09-27T03:51:32.946Z,84.70
2018-09-27T03:53:59.913Z,84.40
2018-09-27T03:56:29.178Z,83.60
2018-09-27T03:58:57.227Z,83.60
2018-09-27T04:01:24.539Z,83.70
2018-09-27T04:03:51.497Z,82.90
2018-09-27T04:06:18.449Z,83.00
2018-09-27T04:08:45.403Z,84.30
2018-09-27T04:11:12.388Z,85.10
2018-09-27T04:13:39.339Z,84.50
2018-09-27T04:16:06.318Z,84.60
2018-09-27T04:18:33.285Z,85.20
2018-09-27T04:21:00.237Z,86.10
2018-09-27T04:23:27.188Z,88.00
2018-09-27T04:25:54.146Z,86.70
2018-09-27T04:28:21.614Z,86.70
2018-09-27T04:30:48.581Z,87.80
2018-09-27T04:33:15.560Z,88.00
2018-09-27T04:35:42.526Z,87.90
2018-09-27T04:38:09.509Z,87.90
2018-09-27T04:40:36.498Z,88.10
2018-09-27T04:43:03.811Z,87.10
2018-09-27T04:45:30.771Z,88.60
2018-09-27T04:47:57.726Z,88.50
2018-09-27T04:50:24.698Z,88.70
2018-09-27T04:52:51.705Z,88.80
2018-09-27T04:55:18.647Z,88.40
2018-09-27T04:57:45.659Z,87.90
2018-09-27T05:00:12.663Z,86.20
2018-09-27T05:02:40.273Z,87.30
2018-09-27T05:05:07.370Z,87.40
2018-09-27T05:07:34.362Z,86.80
2018-09-27T05:10:01.354Z,85.90
2018-09-27T05:12:28.373Z,86.60
2018-09-27T05:14:55.397Z,87.00
2018-09-27T05:17:22.392Z,86.80
2018-09-27T05:19:49.372Z,86.90
2018-09-27T05:22:16.386Z,86.90
2018-09-27T05:24:43.476Z,87.00
2018-09-27T05:27:10.519Z,86.30
2018-09-27T05:29:37.479Z,85.70
2018-09-27T05:32:04.885Z,87.80
2018-09-27T05:34:31.863Z,87.00
2018-09-27T05:36:58.840Z,86.70
2018-09-27T05:39:25.891Z,86.70
2018-09-27T05:41:52.831Z,87.00
2018-09-27T05:44:19.818Z,87.30
2018-09-27T05:46:46.825Z,87.60
2018-09-27T05:49:13.814Z,87.40
2018-09-27T05:51:40.936Z,87.30
2018-09-27T05:54:07.787Z,86.10
2018-09-27T05:56:34.787Z,86.30
2018-09-27T05:59:01.771Z,86.20
2018-09-27T06:01:28.780Z,86.00
2018-09-27T06:03:56.177Z,86.00
2018-09-27T06:06:23.182Z,85.90
2018-09-27T06:08:50.385Z,85.80
2018-09-27T06:11:17.457Z,86.50
2018-09-27T06:13:44.421Z,86.50
2018-09-27T06:16:11.447Z,87.30
2018-09-27T06:18:38.455Z,86.30
2018-09-27T06:21:05.592Z,86.20
2018-09-27T06:23:32.585Z,86.60
2018-09-27T06:25:59.629Z,86.40
2018-09-27T06:28:26.599Z,86.40
2018-09-27T06:30:53.582Z,86.50
2018-09-27T06:33:20.556Z,86.20
2018-09-27T06:35:47.567Z,86.50
2018-09-27T06:38:14.565Z,85.20
2018-09-27T06:40:41.550Z,84.80
2018-09-27T06:43:08.528Z,84.50
2018-09-27T06:45:35.658Z,83.20
2018-09-27T06:48:02.670Z,82.60
2018-09-27T06:52:56.668Z,81.10
2018-09-27T06:55:24.043Z,80.40
2018-09-27T06:57:50.657Z,79.70
2018-09-27T07:00:17.656Z,78.20
2018-09-27T07:02:44.749Z,77.00
2018-09-27T07:05:11.970Z,76.60
2018-09-27T07:07:38.972Z,75.50
2018-09-27T07:10:05.993Z,75.00
2018-09-27T07:12:33.117Z,75.40
2018-09-27T07:15:00.005Z,74.20
2018-09-27T07:17:26.982Z,73.80
2018-09-27T07:19:53.974Z,73.50
2018-09-27T07:22:20.968Z,72.40
2018-09-27T07:24:47.949Z,71.80
2018-09-27T07:27:14.948Z,71.60
2018-09-27T07:29:41.955Z,71.20
2018-09-27T07:32:08.974Z,70.70
2018-09-27T07:34:35.967Z,70.80
2018-09-27T07:37:02.985Z,70.70
2018-09-27T07:39:29.962Z,70.30
2018-09-27T07:41:56.941Z,69.40
2018-09-27T07:44:23.975Z,69.20
2018-09-27T07:46:50.957Z,68.60
2018-09-27T07:49:18.008Z,68.10
2018-09-27T07:51:45.118Z,67.30
2018-09-27T07:54:12.163Z,67.20
2018-09-27T07:56:39.161Z,66.10
2018-09-27T07:59:06.137Z,66.00
2018-09-27T08:01:33.164Z,65.00
2018-09-27T08:04:00.200Z,65.80
2018-09-27T08:06:28.285Z,65.60
2018-09-27T08:08:55.289Z,64.80
2018-09-27T08:11:22.850Z,64.40
2018-09-27T08:13:49.321Z,63.60
2018-09-27T08:16:16.317Z,62.80
2018-09-27T08:18:43.306Z,61.70
2018-09-27T08:21:10.433Z,61.50
2018-09-27T08:23:37.290Z,61.40
2018-09-27T08:26:04.289Z,60.10
2018-09-27T08:28:31.291Z,60.60
2018-09-27T08:30:58.383Z,59.70
2018-09-27T08:33:25.294Z,58.90
2018-09-27T08:35:52.289Z,58.40
2018-09-27T08:38:19.315Z,57.50
2018-09-27T08:40:46.253Z,57.20
2018-09-27T08:43:13.259Z,57.00
2018-09-27T08:45:40.321Z,56.20
2018-09-27T08:48:07.215Z,55.70
2018-09-27T08:50:34.213Z,55.80
2018-09-27T08:53:01.458Z,55.00
2018-09-27T08:55:28.465Z,54.40
2018-09-27T08:57:55.446Z,54.70
2018-09-27T09:00:22.418Z,54.40
2018-09-27T09:02:49.411Z,53.20
2018-09-27T09:05:16.409Z,51.70
2018-09-27T09:07:43.985Z,48.60
2018-09-27T09:10:11.038Z,30.90
2018-09-27T09:12:38.045Z,29.30
2018-09-27T09:15:05.040Z,26.60
2018-09-27T09:17:32.016Z,27.10
2018-09-27T09:19:59.025Z,25.90
2018-09-27T09:22:26.015Z,25.50
2018-09-27T09:24:53.008Z,25.50
2018-09-27T09:27:20.012Z,25.60
2018-09-27T09:29:47.062Z,25.00
2018-09-27T09:32:15.632Z,24.80
2018-09-27T09:34:42.661Z,25.30
2018-09-27T09:37:09.647Z,25.40
2018-09-27T09:39:36.625Z,24.00
2018-09-27T09:42:03.654Z,25.50
2018-09-27T09:44:30.630Z,25.00
2018-09-27T09:46:57.630Z,24.80
2018-09-27T09:49:24.702Z,25.10
2018-09-27T09:51:51.735Z,25.20
2018-09-27T09:54:18.738Z,25.10
2018-09-27T09:56:45.742Z,25.30
2018-09-27T09:59:12.753Z,25.00
2018-09-27T10:01:39.848Z,25.00
2018-09-27T10:04:06.846Z,24.50
2018-09-27T10:06:33.860Z,27.20
2018-09-27T10:09:01.091Z,27.60
2018-09-27T10:11:28.121Z,27.70
2018-09-27T10:13:55.129Z,28.10
2018-09-27T10:16:22.141Z,28.30
2018-09-27T10:18:49.154Z,28.90
2018-09-27T10:21:16.151Z,29.10
2018-09-27T10:23:43.149Z,29.60
2018-09-27T10:26:10.150Z,30.20
2018-09-27T10:28:37.146Z,30.00
2018-09-27T10:31:04.151Z,28.50
2018-09-27T10:33:31.196Z,29.40
2018-09-27T10:35:58.181Z,28.80
2018-09-27T10:38:25.978Z,29.70
2018-09-27T10:40:53.088Z,28.60
2018-09-27T10:43:20.042Z,28.50
2018-09-27T10:45:47.058Z,28.40
2018-09-27T10:48:14.026Z,28.50
2018-09-27T10:50:40.969Z,27.60
2018-09-27T10:53:08.462Z,28.00
2018-09-27T10:55:35.439Z,28.40
2018-09-27T10:58:02.384Z,28.90
2018-09-27T11:00:29.410Z,29.00
2018-09-27T11:02:56.393Z,28.00
2018-09-27T11:05:23.423Z,28.10
2018-09-27T11:10:30.687Z,27.10
2018-09-27T11:12:57.657Z,27.70
2018-09-27T11:15:24.608Z,26.00
2018-09-27T11:17:51.573Z,27.10
2018-09-27T11:20:18.555Z,27.50
2018-09-27T11:22:45.514Z,26.50
2018-09-27T11:25:12.508Z,27.20
2018-09-27T11:27:39.529Z,26.10
2018-09-27T11:30:28.834Z,27.80
2018-09-27T11:32:55.812Z,26.40
2018-09-27T11:35:22.758Z,26.90
2018-09-27T11:37:49.718Z,27.20
2018-09-27T11:40:16.674Z,27.00
2018-09-27T11:42:43.679Z,27.50
2018-09-27T11:45:10.573Z,27.10
2018-09-27T11:47:37.530Z,26.20
2018-09-27T11:50:04.743Z,26.80
2018-09-27T11:52:31.647Z,27.20
2018-09-27T11:54:58.682Z,27.30
2018-09-27T11:57:25.594Z,27.30
2018-09-27T11:59:52.631Z,27.80
2018-09-27T12:02:19.684Z,27.10
2018-09-27T12:04:46.631Z,27.00
2018-09-27T12:07:13.617Z,25.60
2018-09-27T12:09:40.586Z,26.60
2018-09-27T12:12:08.008Z,26.10
2018-09-27T12:14:35.014Z,26.50
2018-09-27T12:17:01.921Z,25.60
2018-09-27T12:19:29.225Z,26.30
2018-09-27T12:21:56.346Z,25.60
2018-09-27T12:24:23.278Z,25.70
2018-09-27T12:26:50.221Z,26.90
2018-09-27T12:29:17.191Z,26.40
2018-09-27T12:31:44.198Z,26.00
2018-09-27T12:34:11.287Z,26.60
2018-09-27T12:36:38.196Z,26.80
2018-09-27T12:39:06.870Z,26.80
2018-09-27T12:41:33.859Z,25.00
2018-09-27T12:44:00.782Z,27.00
2018-09-27T12:46:27.779Z,24.90
2018-09-27T12:48:54.741Z,25.50
2018-09-27T12:51:21.813Z,26.00
2018-09-27T12:53:48.654Z,24.40
2018-09-27T12:56:15.637Z,25.60
2018-09-27T12:58:42.701Z,24.10
2018-09-27T13:01:09.763Z,25.20
2018-09-27T13:03:36.649Z,26.30
2018-09-27T13:06:03.662Z,25.80
2018-09-27T13:08:30.647Z,24.70
2018-09-27T13:10:58.930Z,25.20
2018-09-27T13:13:28.463Z,24.90
2018-09-27T13:15:56.874Z,25.60
2018-09-27T13:18:24.342Z,26.40
2018-09-27T13:20:52.212Z,25.90
2018-09-27T13:23:19.698Z,26.50
2018-09-27T13:25:46.708Z,27.60
2018-09-27T13:28:13.610Z,26.90
2018-09-27T13:30:40.550Z,25.90
2018-09-27T13:33:07.639Z,26.80
2018-09-27T13:35:34.557Z,26.30
2018-09-27T13:38:01.519Z,28.40
2018-09-27T13:40:28.478Z,29.40
2018-09-27T13:42:55.453Z,29.90
2018-09-27T13:45:22.394Z,28.10
2018-09-27T13:47:49.372Z,29.90
2018-09-27T13:50:16.326Z,30.20
2018-09-27T13:52:43.290Z,29.80
2018-09-27T13:55:10.326Z,29.60
2018-09-27T13:57:37.229Z,30.60
2018-09-27T14:00:04.184Z,30.30
2018-09-27T14:02:31.203Z,28.70
2018-09-27T14:04:58.176Z,30.00
2018-09-27T14:07:25.122Z,29.80
2018-09-27T14:09:52.060Z,28.20
2018-09-27T14:12:19.038Z,30.30
2018-09-27T14:14:46.583Z,30.00
2018-09-27T14:17:13.525Z,29.70
2018-09-27T14:19:40.500Z,29.20
2018-09-27T14:22:07.464Z,29.60
2018-09-27T14:24:34.412Z,29.00
2018-09-27T14:27:01.378Z,28.50
2018-09-27T14:29:28.335Z,29.00
2018-09-27T14:31:55.327Z,28.60
2018-09-27T14:34:22.325Z,29.20
2018-09-27T14:36:49.289Z,27.60
2018-09-27T14:39:16.304Z,29.20
2018-09-27T14:41:43.294Z,30.10
2018-09-27T14:44:10.202Z,29.70
2018-09-27T14:46:37.181Z,29.30
2018-09-27T14:49:04.321Z,28.40
2018-09-27T14:51:31.274Z,28.60
2018-09-27T14:53:58.417Z,29.50
2018-09-27T14:56:25.412Z,30.50
2018-09-27T14:58:52.398Z,29.30
2018-09-27T15:01:19.373Z,29.20
2018-09-27T15:03:46.356Z,29.10
2018-09-27T15:06:13.346Z,30.00
2018-09-27T15:08:40.465Z,29.50
2018-09-27T15:11:07.434Z,29.30
2018-09-27T15:13:34.690Z,29.20
2018-09-27T15:16:02.143Z,30.10
2018-09-27T15:18:29.307Z,29.40
2018-09-27T15:20:56.343Z,30.10
2018-09-27T15:23:23.572Z,30.00
2018-09-27T15:25:50.658Z,30.00
2018-09-27T15:28:17.730Z,29.60
2018-09-27T15:30:44.907Z,29.50
2018-09-27T15:33:12.035Z,29.60
2018-09-27T15:35:39.170Z,30.50
2018-09-27T15:38:06.231Z,31.40
2018-09-27T15:40:33.299Z,32.30
2018-09-27T15:43:00.359Z,32.40
2018-09-27T15:45:27.470Z,31.40
2018-09-27T15:47:54.402Z,33.40
2018-09-27T15:50:21.451Z,33.30
2018-09-27T15:52:48.521Z,31.70
2018-09-27T15:55:15.474Z,31.20
2018-09-27T15:57:42.481Z,32.70
2018-09-27T16:00:09.639Z,32.20
2018-09-27T16:02:36.731Z,33.60
2018-09-27T16:05:03.751Z,34.00
2018-09-27T16:07:30.702Z,32.20
2018-09-27T16:09:57.727Z,33.50
2018-09-27T16:12:24.674Z,34.30
2018-09-27T16:14:51.864Z,34.60
2018-09-27T16:17:18.929Z,34.30
2018-09-27T16:19:46.027Z,34.60
2018-09-27T16:22:13.069Z,35.00
2018-09-27T16:24:40.236Z,35.10
2018-09-27T16:27:07.197Z,34.70
2018-09-27T16:29:34.200Z,35.50
2018-09-27T16:32:01.183Z,35.20
2018-09-27T16:34:28.217Z,35.10
2018-09-27T16:36:55.165Z,35.80
2018-09-27T16:39:22.162Z,36.60
2018-09-27T16:41:49.110Z,37.00
2018-09-27T16:44:16.069Z,37.50
2018-09-27T16:46:43.658Z,37.90
2018-09-27T16:49:10.767Z,38.20
2018-09-27T16:51:37.684Z,37.60
2018-09-27T16:54:10.343Z,37.40
2018-09-27T16:56:37.388Z,39.60
2018-09-27T16:59:04.347Z,40.10
2018-09-27T17:01:31.358Z,39.90
2018-09-27T17:03:58.363Z,40.10
2018-09-27T17:06:25.341Z,41.10
2018-09-27T17:08:52.315Z,41.20
2018-09-27T17:11:19.629Z,41.80
2018-09-27T17:13:46.594Z,42.70
2018-09-27T17:16:13.567Z,42.70
2018-09-27T17:18:40.871Z,43.80
2018-09-27T17:21:07.758Z,43.50
2018-09-27T17:23:34.986Z,44.30
2018-09-27T17:26:01.914Z,46.20
2018-09-27T17:28:28.902Z,43.10
2018-09-27T17:30:55.916Z,43.50
2018-09-27T17:33:22.887Z,43.30
2018-09-27T17:35:50.203Z,41.70
2018-09-27T17:38:18.113Z,41.50
2018-09-27T17:40:45.264Z,41.70
2018-09-27T17:43:12.265Z,41.70
2018-09-27T17:45:39.327Z,42.80
2018-09-27T17:48:06.372Z,40.70
2018-09-27T17:50:33.478Z,43.30
2018-09-27T17:53:00.661Z,43.50
2018-09-27T17:55:27.838Z,43.70
2018-09-27T17:57:54.881Z,44.60
2018-09-27T18:00:21.935Z,44.60
2018-09-27T18:02:48.928Z,44.10
2018-09-27T18:05:19.348Z,47.30
2018-09-27T18:07:43.045Z,46.40
2018-09-27T18:10:10.013Z,47.90
2018-09-27T18:12:36.962Z,50.30
2018-09-27T18:15:04.150Z,51.40
2018-09-27T18:17:31.159Z,50.70
2018-09-27T18:19:59.008Z,51.20
2018-09-27T18:22:26.073Z,50.90
2018-09-27T18:24:53.022Z,52.00
2018-09-27T18:27:20.040Z,52.00
2018-09-27T18:29:46.995Z,52.40
2018-09-27T18:32:13.946Z,52.00
2018-09-27T18:34:41.012Z,52.70
2018-09-27T18:37:07.989Z,53.00
2018-09-27T18:39:34.976Z,53.10
2018-09-27T18:42:01.922Z,54.30
2018-09-27T18:44:28.911Z,54.80
2018-09-27T18:46:55.876Z,55.10
2018-09-27T18:49:22.825Z,55.70
2018-09-27T18:51:49.792Z,56.00
2018-09-27T18:54:16.775Z,56.70
2018-09-27T18:56:43.729Z,57.00
2018-09-27T18:59:10.734Z,57.00
2018-09-27T19:01:38.031Z,57.40
2018-09-27T19:04:05.244Z,57.80
2018-09-27T19:06:32.247Z,57.60
2018-09-27T19:08:59.193Z,58.30
2018-09-27T19:11:26.170Z,58.30
2018-09-27T19:13:53.161Z,58.40
2018-09-27T19:16:20.216Z,58.90
2018-09-27T19:18:47.207Z,57.90
2018-09-27T19:21:14.477Z,57.40
2018-09-27T19:23:41.507Z,58.20
2018-09-27T19:26:08.556Z,57.40
2018-09-27T19:28:35.511Z,56.90
2018-09-27T19:31:02.546Z,58.00
2018-09-27T19:33:29.529Z,58.50
2018-09-27T19:35:56.531Z,60.20
2018-09-27T19:38:23.505Z,59.80
2018-09-27T19:40:50.452Z,59.70
2018-09-27T19:43:17.429Z,59.10
2018-09-27T19:45:44.395Z,60.70
2018-09-27T19:48:11.345Z,61.60
2018-09-27T19:50:38.350Z,61.80
2018-09-27T19:53:05.446Z,61.80
2018-09-27T19:55:32.539Z,63.00
2018-09-27T19:57:59.571Z,63.40
2018-09-27T20:00:26.557Z,64.20
2018-09-27T20:02:53.519Z,64.40
2018-09-27T20:05:20.513Z,63.40
2018-09-27T20:07:47.461Z,63.60
2018-09-27T20:10:14.485Z,63.40
2018-09-27T20:12:41.412Z,63.40
2018-09-27T20:15:08.386Z,63.40
2018-09-27T20:17:35.362Z,64.10
2018-09-27T20:20:02.330Z,64.00
2018-09-27T20:22:32.080Z,63.80
2018-09-27T20:24:59.049Z,64.10
2018-09-27T20:27:26.066Z,64.50
2018-09-27T20:29:53.038Z,65.20
2018-09-27T20:32:20.028Z,65.10
2018-09-27T20:34:47.062Z,64.90
2018-09-27T20:37:14.006Z,63.30
2018-09-27T20:39:41.221Z,64.20
2018-09-27T20:42:08.173Z,63.40
2018-09-27T20:44:35.149Z,64.80
2018-09-27T20:47:02.096Z,63.50
2018-09-27T20:49:29.093Z,62.80
2018-09-27T20:51:56.050Z,63.50
2018-09-27T20:54:23.006Z,64.00
2018-09-27T20:56:49.992Z,64.40
2018-09-27T20:59:17.020Z,64.20
2018-09-27T21:01:43.974Z,64.00
2018-09-27T21:04:11.020Z,65.20
2018-09-27T21:06:38.067Z,65.10
2018-09-27T21:09:07.555Z,65.30
2018-09-27T21:11:34.540Z,67.10
2018-09-27T21:14:01.566Z,67.20
2018-09-27T21:16:28.505Z,67.10
2018-09-27T21:18:55.528Z,66.10
2018-09-27T21:21:22.518Z,65.70
2018-09-27T21:23:52.845Z,66.40
2018-09-27T21:26:20.111Z,65.50
2018-09-27T21:28:47.104Z,66.00
2018-09-27T21:31:14.070Z,63.30
2018-09-27T21:33:41.739Z,64.40
2018-09-27T21:36:08.783Z,66.40
2018-09-27T21:38:35.940Z,66.20
2018-09-27T21:41:02.935Z,66.50
2018-09-27T21:43:29.902Z,66.60
2018-09-27T21:45:56.871Z,66.30
2018-09-27T21:48:23.842Z,66.70
2018-09-27T21:50:51.337Z,67.60
2018-09-27T21:53:18.272Z,67.70
2018-09-27T21:55:48.960Z,67.90
2018-09-27T21:58:15.905Z,68.20
2018-09-27T22:00:42.925Z,68.40
2018-09-27T22:03:09.901Z,68.70
2018-09-27T22:05:36.932Z,68.60
2018-09-27T22:08:03.837Z,68.70
2018-09-27T22:10:30.829Z,66.70
2018-09-27T22:12:57.818Z,69.60
2018-09-27T22:15:24.765Z,70.00
2018-09-27T22:17:51.766Z,70.50
2018-09-27T22:20:18.718Z,70.60
2018-09-27T22:22:45.682Z,70.10
2018-09-27T22:25:13.061Z,70.40
2018-09-27T22:27:40.008Z,70.70
2018-09-27T22:30:07.466Z,71.40
2018-09-27T22:32:34.441Z,70.90
2018-09-27T22:35:01.398Z,71.10
2018-09-27T22:37:28.410Z,71.20
2018-09-27T22:39:55.402Z,72.30
2018-09-27T22:42:22.374Z,72.30
2018-09-27T22:44:49.313Z,72.60
2018-09-27T22:47:16.310Z,73.40
2018-09-27T22:49:43.278Z,73.10
2018-09-27T22:52:10.237Z,73.00
2018-09-27T22:54:37.189Z,73.10
2018-09-27T22:57:04.144Z,73.00
2018-09-27T22:59:31.103Z,72.70
2018-09-27T23:01:58.074Z,72.10
2018-09-27T23:04:25.028Z,71.90
2018-09-27T23:06:51.974Z,71.30
2018-09-27T23:09:18.930Z,71.40
2018-09-27T23:11:45.897Z,71.30
2018-09-27T23:14:12.875Z,71.40
2018-09-27T23:16:39.837Z,71.30
2018-09-27T23:19:06.817Z,71.50
2018-09-27T23:21:33.896Z,72.00
2018-09-27T23:24:00.870Z,72.10
2018-09-27T23:26:28.255Z,72.70
2018-09-27T23:28:55.209Z,73.50
2018-09-27T23:31:22.186Z,71.90
2018-09-27T23:33:49.149Z,71.20
2018-09-27T23:36:16.107Z,73.30
2018-09-27T23:38:43.081Z,73.50
2018-09-27T23:41:10.034Z,73.90
2018-09-27T23:43:37.082Z,73.50
2018-09-27T23:46:04.058Z,74.10
2018-09-27T23:48:31.010Z,74.20
2018-09-27T23:50:57.978Z,74.30
2018-09-27T23:53:24.958Z,74.20
2018-09-27T23:55:52.027Z,74.60
2018-09-27T23:58:18.976Z,74.30
